Time;durP1;ratioP1;P1;durP2;ratioP2;P2;SDS_P1;SDS_P2;PMS_P1;PMS_P2;Temp;Humidity;BMP_temperature;BMP_pressure;BME280_temperature;BME280_humidity;BME280_pressure;Samples;Min_cycle;Max_cycle;Signal;HPM_P1;HPM_P2
2022/06/19 10:48:26;;;;;;;17.60;5.90;;;25.50;99.90;;;;;;5562202;23;20053;-80
2022/06/19 10:51:10;;;;;;;21.38;6.45;;;25.70;99.90;;;;;;4973388;28;20031;-77
2022/06/19 10:53:36;;;;;;;26.50;7.55;;;25.40;99.90;;;;;;4982886;28;20199;-77
2022/06/19 10:56:19;;;;;;;25.20;5.85;;;25.50;99.90;;;;;;4981502;28;20380;-79
2022/06/19 10:58:45;;;;;;;18.43;5.93;;;25.50;99.90;;;;;;4979186;28;20035;-79
2022/06/19 11:04:06;;;;;;;20.13;6.32;;;25.40;99.90;;;;;;4981254;28;20044;-80
2022/06/19 11:04:08;;;;;;;17.08;5.90;;;25.40;99.90;;;;;;4975542;28;20075;-79
2022/06/19 11:06:43;;;;;;;20.05;5.90;;;25.50;99.90;;;;;;4971562;28;20387;-79
2022/06/19 11:09:20;;;;;;;20.40;5.75;;;25.30;99.90;;;;;;4972064;28;20085;-79
2022/06/19 11:11:48;;;;;;;27.88;6.15;;;24.90;99.90;;;;;;4974116;28;20109;-79
2022/06/19 11:14:26;;;;;;;21.92;6.10;;;24.80;99.90;;;;;;4976829;28;20034;-78
2022/06/19 11:17:12;;;;;;;21.15;6.15;;;24.70;99.90;;;;;;4976501;28;20022;-81
2022/06/19 11:19:42;;;;;;;19.88;5.97;;;24.90;99.90;;;;;;4983534;28;20039;-86
2022/06/19 11:22:33;;;;;;;19.75;5.28;;;25.20;99.90;;;;;;4964103;28;20021;-82
2022/06/19 11:25:18;;;;;;;20.70;5.78;;;25.50;99.90;;;;;;4972555;28;20046;-82
2022/06/19 11:28:11;;;;;;;17.58;4.95;;;25.80;99.90;;;;;;4971759;28;20753;-84
2022/06/19 11:30:45;;;;;;;18.98;6.13;;;26.10;99.90;;;;;;4971725;28;20051;-82
2022/06/19 11:33:17;;;;;;;19.00;5.60;;;26.20;99.90;;;;;;4952720;28;20022;-82
2022/06/19 11:35:56;;;;;;;19.10;5.60;;;26.10;99.90;;;;;;4969155;28;20058;-81
2022/06/19 11:38:42;;;;;;;18.63;5.68;;;25.80;99.90;;;;;;4978872;28;20230;-82
2022/06/19 11:41:17;;;;;;;19.83;5.90;;;25.80;99.90;;;;;;4981088;28;20022;-83
2022/06/19 11:43:42;;;;;;;16.55;4.90;;;26.20;99.90;;;;;;4982781;28;20023;-82
2022/06/19 11:46:25;;;;;;;19.13;5.57;;;26.40;99.90;;;;;;4981691;28;20022;-81
2022/06/19 11:48:50;;;;;;;15.18;5.03;;;26.10;99.90;;;;;;4997159;28;20050;-81
2022/06/19 11:51:23;;;;;;;16.52;5.07;;;25.70;99.90;;;;;;5001083;28;20030;-82
2022/06/19 11:53:58;;;;;;;19.67;5.30;;;25.50;99.90;;;;;;5002430;28;20033;-81
2022/06/19 11:56:30;;;;;;;23.65;4.88;;;25.60;99.90;;;;;;5002068;28;20260;-82
2022/06/19 11:59:02;;;;;;;19.75;5.57;;;25.90;99.90;;;;;;5001809;28;20089;-81
2022/06/19 12:01:38;;;;;;;22.10;4.93;;;26.00;99.90;;;;;;5002473;28;20014;-81
2022/06/19 12:04:14;;;;;;;23.30;4.53;;;26.20;99.90;;;;;;5001604;28;20326;-81
2022/06/19 12:06:42;;;;;;;18.23;5.03;;;26.30;99.90;;;;;;5002194;28;20093;-81
2022/06/19 12:09:27;;;;;;;19.65;4.63;;;26.00;99.90;;;;;;5001907;28;20022;-82
2022/06/19 12:12:08;;;;;;;24.08;4.13;;;25.60;99.90;;;;;;5000654;28;20198;-81
2022/06/19 12:14:54;;;;;;;22.73;5.43;;;25.40;99.90;;;;;;5002148;28;20022;-81
2022/06/19 12:17:26;;;;;;;24.95;4.85;;;25.40;99.90;;;;;;5001744;28;20026;-82
2022/06/19 12:19:54;;;;;;;18.23;4.28;;;25.30;99.90;;;;;;4998002;28;20234;-84
2022/06/19 12:22:44;;;;;;;15.20;3.80;;;25.20;99.90;;;;;;4990877;28;20109;-84
2022/06/19 12:25:29;;;;;;;18.05;3.58;;;25.00;99.90;;;;;;5005846;28;20117;-83
2022/06/19 12:28:12;;;;;;;19.98;3.60;;;24.90;99.90;;;;;;4996891;28;20027;-84
2022/06/19 12:30:47;;;;;;;18.70;3.67;;;25.00;99.90;;;;;;4993722;28;20026;-84
2022/06/19 12:33:20;;;;;;;18.40;4.38;;;25.20;99.90;;;;;;4994678;28;20110;-83
2022/06/19 12:35:48;;;;;;;20.95;4.50;;;25.30;99.90;;;;;;4992580;28;20026;-84
2022/06/19 12:38:16;;;;;;;27.70;4.85;;;25.30;99.90;;;;;;4991915;28;20037;-83
2022/06/19 12:41:27;;;;;;;23.10;4.82;;;25.50;99.90;;;;;;4990498;28;20026;-84
2022/06/19 12:44:01;;;;;;;22.88;4.60;;;25.50;99.90;;;;;;4979911;28;20375;-84
2022/06/19 12:46:47;;;;;;;23.80;4.50;;;25.30;99.90;;;;;;4995718;28;20034;-83
2022/06/19 12:49:16;;;;;;;25.98;4.55;;;25.50;99.90;;;;;;4988257;28;20085;-84
2022/06/19 12:51:51;;;;;;;29.13;4.68;;;25.10;99.90;;;;;;4992701;28;20373;-84
2022/06/19 12:54:43;;;;;;;21.65;4.15;;;25.60;99.90;;;;;;5001327;28;20030;-84
2022/06/19 12:57:22;;;;;;;22.38;4.47;;;25.50;99.90;;;;;;5001277;28;20018;-84
2022/06/19 12:59:58;;;;;;;24.65;4.80;;;25.40;99.90;;;;;;4992212;28;20041;-84
2022/06/19 13:02:49;;;;;;;27.58;4.88;;;25.50;99.90;;;;;;4990325;28;20023;-84
2022/06/19 13:05:17;;;;;;;17.42;4.15;;;25.30;99.90;;;;;;4990323;28;20026;-84
2022/06/19 13:08:04;;;;;;;23.27;4.35;;;25.30;99.90;;;;;;4990299;28;20096;-84
2022/06/19 13:10:39;;;;;;;18.48;4.45;;;25.50;99.90;;;;;;4990162;28;20026;-84
2022/06/19 13:13:19;;;;;;;17.25;3.67;;;25.70;99.90;;;;;;4990471;28;20486;-84
2022/06/19 13:16:05;;;;;;;12.45;3.28;;;25.70;99.90;;;;;;4988369;28;20031;-83
2022/06/19 13:18:55;;;;;;;25.45;4.57;;;25.70;99.90;;;;;;5001919;28;20031;-83
2022/06/19 13:21:21;;;;;;;20.27;4.25;;;25.80;99.90;;;;;;4973813;28;20026;-83
2022/06/19 13:24:04;;;;;;;15.35;3.78;;;26.10;99.90;;;;;;4991028;28;20170;-80
2022/06/19 13:27:12;;;;;;;13.95;3.50;;;26.60;99.90;;;;;;4988589;28;20037;-79
2022/06/19 13:30:03;;;;;;;18.25;4.25;;;27.00;99.90;;;;;;4990091;28;20065;-79
2022/06/19 13:32:47;;;;;;;15.80;3.25;;;27.50;99.90;;;;;;4989850;28;20027;-80
2022/06/19 13:35:44;;;;;;;14.68;3.42;;;29.00;99.90;;;;;;4990178;28;20490;-81
2022/06/19 13:38:50;;;;;;;21.70;4.75;;;30.10;98.90;;;;;;4989900;28;20038;-79
2022/06/19 13:41:33;;;;;;;16.45;3.72;;;30.40;97.90;;;;;;4930091;29;20039;-79
2022/06/19 13:44:22;;;;;;;11.32;3.13;;;31.00;97.30;;;;;;4932790;29;20032;-80
2022/06/19 13:47:17;;;;;;;16.67;3.90;;;32.60;95.50;;;;;;4972957;28;20173;-80
2022/06/19 13:49:48;;;;;;;16.42;4.63;;;33.10;94.00;;;;;;4993575;28;20045;-80
2022/06/19 13:52:28;;;;;;;15.38;3.40;;;33.20;93.80;;;;;;4993395;28;20037;-80
2022/06/19 13:55:21;;;;;;;13.48;3.58;;;33.30;93.20;;;;;;4993005;28;20022;-80
2022/06/19 13:58:13;;;;;;;16.85;3.60;;;32.90;92.40;;;;;;4992675;28;20105;-80
2022/06/19 14:01:04;;;;;;;14.23;3.80;;;32.60;92.10;;;;;;4991714;28;20026;-80
2022/06/19 14:07:03;;;;;;;11.48;3.28;;;32.70;92.80;;;;;;4993345;28;20052;-79
2022/06/19 14:09:38;;;;;;;15.70;3.72;;;33.10;92.20;;;;;;4968654;28;20042;-80
2022/06/19 14:12:06;;;;;;;11.68;3.10;;;32.50;92.20;;;;;;4991301;28;20142;-80
2022/06/19 14:14:41;;;;;;;11.82;3.50;;;32.40;92.30;;;;;;4992668;28;20467;-80
2022/06/19 14:17:36;;;;;;;15.45;2.95;;;32.40;91.90;;;;;;4991523;28;20022;-80
2022/06/19 14:20:16;;;;;;;12.73;3.45;;;33.00;92.10;;;;;;4990252;28;20023;-80
2022/06/19 14:23:21;;;;;;;11.15;3.15;;;33.60;91.30;;;;;;4992495;28;20029;-79
2022/06/19 14:25:59;;;;;;;;;;;33.90;90.40;;;;;;4979700;28;20069;-79
2022/06/19 14:28:36;;;;;;;12.70;3.03;;;32.80;91.40;;;;;;4990984;28;20373;-80
2022/06/19 14:31:02;;;;;;;14.82;3.13;;;33.70;90.90;;;;;;4992543;28;20117;-79
2022/06/19 14:33:51;;;;;;;11.55;3.22;;;33.40;90.60;;;;;;4992401;28;20037;-80
2022/06/19 14:36:19;;;;;;;14.55;3.17;;;34.10;90.60;;;;;;4992316;28;20042;-80
2022/06/19 14:38:47;;;;;;;9.25;2.80;;;36.50;86.80;;;;;;4992272;28;20030;-80
2022/06/19 14:41:18;;;;;;;9.52;2.45;;;37.40;82.60;;;;;;4992294;28;20092;-80
2022/06/19 14:43:55;;;;;;;11.30;2.80;;;38.20;80.40;;;;;;4992337;28;20356;-81
2022/06/19 14:46:27;;;;;;;7.35;2.30;;;38.30;76.20;;;;;;4992655;28;20019;-80
2022/06/19 14:49:39;;;;;;;7.45;2.17;;;35.80;77.60;;;;;;4993013;28;20054;-80
2022/06/19 14:52:23;;;;;;;12.05;2.65;;;35.90;78.40;;;;;;4992587;28;20026;-78
2022/06/19 14:54:59;;;;;;;14.70;3.20;;;33.60;81.90;;;;;;4992277;28;20338;-78
2022/06/19 14:57:32;;;;;;;11.93;2.70;;;31.40;87.60;;;;;;4992236;28;20537;-78
2022/06/19 15:00:28;;;;;;;11.00;3.05;;;31.10;90.10;;;;;;4992145;28;20549;-79
2022/06/19 15:02:59;;;;;;;11.02;2.95;;;31.60;90.50;;;;;;4991418;28;20034;-79
2022/06/19 15:05:35;;;;;;;10.73;3.05;;;32.20;89.70;;;;;;4992505;28;20023;-79
2022/06/19 15:08:03;;;;;;;18.25;3.63;;;32.50;88.90;;;;;;4992193;28;20101;-79
2022/06/19 15:10:47;;;;;;;19.70;3.53;;;33.10;87.60;;;;;;4992124;28;20110;-78
2022/06/19 15:13:19;;;;;;;12.73;3.00;;;32.20;86.60;;;;;;4991984;28;20084;-79
2022/06/19 15:15:49;;;;;;;15.25;3.00;;;31.80;90.20;;;;;;4991809;28;20109;-79
2022/06/19 15:18:20;;;;;;;12.93;3.10;;;33.00;88.80;;;;;;4991604;28;20030;-80
2022/06/19 15:21:04;;;;;;;14.88;3.28;;;31.80;87.40;;;;;;4991951;28;20040;-80
2022/06/19 15:23:31;;;;;;;7.75;2.75;;;29.70;90.50;;;;;;4991813;28;20025;-79
2022/06/19 15:26:12;;;;;;;9.32;2.70;;;30.00;91.00;;;;;;4991818;28;20383;-78
2022/06/19 15:28:49;;;;;;;11.82;2.78;;;31.00;90.60;;;;;;4991714;28;20033;-78
2022/06/19 15:31:18;;;;;;;13.55;3.03;;;30.80;90.70;;;;;;4990130;28;20403;-78
2022/06/19 15:33:55;;;;;;;12.18;2.90;;;29.20;91.10;;;;;;4989942;28;20474;-80
2022/06/19 15:36:35;;;;;;;13.18;3.22;;;28.80;91.50;;;;;;4991626;28;20026;-80
2022/06/19 15:39:12;;;;;;;9.20;2.38;;;30.30;91.60;;;;;;4990122;28;20080;-81
2022/06/19 15:41:45;;;;;;;13.35;3.03;;;30.60;91.00;;;;;;4991371;28;20028;-80
2022/06/19 15:44:17;;;;;;;12.63;2.93;;;30.60;91.10;;;;;;4991681;28;20061;-79
2022/06/19 15:47:01;;;;;;;9.45;2.78;;;30.10;90.40;;;;;;4991258;28;20026;-81
2022/06/19 15:49:27;;;;;;;13.35;2.70;;;29.20;91.70;;;;;;4991308;28;20046;-81
2022/06/19 15:51:59;;;;;;;9.95;2.53;;;28.80;91.10;;;;;;4990834;28;20034;-80
2022/06/19 15:54:24;;;;;;;14.13;2.70;;;28.10;92.20;;;;;;4991051;28;20394;-79
2022/06/19 15:56:53;;;;;;;10.07;3.33;;;27.40;94.00;;;;;;4991188;28;20022;-80
2022/06/19 15:59:25;;;;;;;12.38;2.85;;;27.00;94.80;;;;;;4991135;28;20030;-79
2022/06/19 16:01:57;;;;;;;11.48;3.08;;;26.80;95.40;;;;;;4991185;28;20032;-80
2022/06/19 16:04:41;;;;;;;10.52;2.90;;;26.60;96.00;;;;;;4990422;28;20034;-80
2022/06/19 16:07:17;;;;;;;11.77;3.23;;;26.10;96.80;;;;;;4991348;28;20093;-80
2022/06/19 16:09:51;;;;;;;12.15;2.97;;;25.60;97.80;;;;;;4990802;28;20479;-80
2022/06/19 16:12:35;;;;;;;13.60;3.30;;;25.30;98.30;;;;;;4990829;28;20081;-80
2022/06/19 16:15:20;;;;;;;12.93;3.03;;;25.00;99.50;;;;;;4990861;28;20463;-80
2022/06/19 16:17:57;;;;;;;12.70;2.88;;;25.20;99.90;;;;;;4990818;28;20301;-80
2022/06/19 16:20:50;;;;;;;17.17;3.85;;;25.30;99.80;;;;;;4990812;28;20026;-81
2022/06/19 16:23:16;;;;;;;13.52;2.95;;;25.50;99.80;;;;;;4990897;28;20096;-80
2022/06/19 16:25:44;;;;;;;11.82;3.10;;;25.50;99.90;;;;;;4990627;28;20423;-81
2022/06/19 16:28:33;;;;;;;12.30;3.30;;;25.40;99.90;;;;;;4990785;28;20375;-80
2022/06/19 16:31:14;;;;;;;15.38;3.47;;;25.50;99.90;;;;;;4990712;28;20616;-80
2022/06/19 16:33:48;;;;;;;16.05;3.58;;;25.50;99.90;;;;;;4996089;28;20042;-80
2022/06/19 16:45:17;;;;;;;15.80;2.97;;;24.90;99.90;;;;;;4923339;29;20071;-81
2022/06/19 16:47:44;;;;;;;13.60;3.50;;;24.80;99.90;;;;;;4917461;29;20068;-81
2022/06/19 16:50:14;;;;;;;13.27;3.08;;;25.00;99.90;;;;;;4922913;29;20108;-81
2022/06/19 16:52:45;;;;;;;16.27;3.60;;;25.30;99.90;;;;;;4923663;29;20035;-81
2022/06/19 16:55:18;;;;;;;15.15;3.47;;;26.10;99.90;;;;;;4923768;29;20259;-81
2022/06/19 16:58:02;;;;;;;17.98;4.20;;;26.70;99.60;;;;;;4923603;29;20032;-81
2022/06/19 17:00:31;;;;;;;16.92;3.63;;;26.60;99.80;;;;;;4924088;29;20056;-80
2022/06/19 17:02:56;;;;;;;13.57;3.53;;;27.40;99.00;;;;;;4923147;29;20028;-80
2022/06/19 17:05:22;;;;;;;13.30;3.70;;;30.00;96.10;;;;;;4922823;29;20040;-80
2022/06/19 17:10:38;;;;;;;12.65;3.30;;;31.20;93.70;;;;;;4923952;29;20054;-82
2022/06/19 17:13:09;;;;;;;15.90;3.33;;;32.20;92.50;;;;;;4913733;29;20063;-81
2022/06/19 17:15:34;;;;;;;15.77;3.10;;;33.20;90.70;;;;;;4919231;29;20322;-81
2022/06/19 17:18:00;;;;;;;8.85;2.75;;;32.50;90.70;;;;;;4926733;29;20291;-81
2022/06/19 17:20:36;;;;;;;12.73;3.20;;;32.10;91.00;;;;;;4925742;29;20028;-79
2022/06/19 17:23:06;;;;;;;12.15;2.75;;;32.00;90.70;;;;;;4945347;29;20050;-80
2022/06/19 17:25:35;;;;;;;12.85;2.90;;;31.00;91.10;;;;;;4947207;29;20123;-81
2022/06/19 17:28:09;;;;;;;10.55;3.38;;;29.20;93.20;;;;;;4947230;29;20311;-79
2022/06/19 17:30:54;;;;;;;11.95;3.60;;;27.90;95.20;;;;;;4947249;29;20319;-81
2022/06/19 17:33:24;;;;;;;11.23;3.10;;;27.70;96.00;;;;;;4945097;29;20031;-81
2022/06/19 17:35:50;;;;;;;12.95;4.05;;;27.80;96.10;;;;;;4943154;29;20432;-81
2022/06/19 17:38:31;;;;;;;13.82;3.42;;;28.00;95.90;;;;;;4935975;29;20032;-81
2022/06/19 17:40:59;;;;;;;14.40;3.00;;;28.10;95.80;;;;;;4935812;29;20050;-81
2022/06/19 17:43:33;;;;;;;13.38;3.38;;;28.10;95.80;;;;;;4935910;29;20027;-80
2022/06/19 17:46:02;;;;;;;12.68;3.70;;;28.00;95.60;;;;;;4935928;29;20611;-81
2022/06/19 17:48:35;;;;;;;13.15;3.72;;;27.80;95.70;;;;;;4935526;29;20047;-82
2022/06/19 17:51:38;;;;;;;10.77;3.07;;;27.40;96.30;;;;;;4935921;29;20036;-80
2022/06/19 17:54:07;;;;;;;14.75;3.10;;;27.10;97.00;;;;;;4935840;29;20271;-81
2022/06/19 17:56:41;;;;;;;10.65;3.05;;;27.00;96.80;;;;;;4935595;29;20360;-81
2022/06/19 17:59:32;;;;;;;17.77;3.72;;;26.80;97.10;;;;;;4935502;29;20391;-81
2022/06/19 18:02:22;;;;;;;14.77;3.42;;;26.40;98.10;;;;;;4934088;29;20056;-81
2022/06/19 18:04:53;;;;;;;12.43;3.13;;;26.50;98.60;;;;;;4935577;29;20034;-81
2022/06/19 18:07:27;;;;;;;12.85;3.72;;;26.40;98.80;;;;;;4935513;29;20024;-80
2022/06/19 18:10:00;;;;;;;16.95;3.38;;;26.40;98.90;;;;;;4935399;29;20027;-80
2022/06/19 18:12:27;;;;;;;15.40;3.42;;;26.40;98.90;;;;;;4935541;29;20114;-81
2022/06/19 18:14:57;;;;;;;15.73;3.20;;;26.30;99.10;;;;;;4935353;29;20028;-80
2022/06/19 18:20:16;;;;;;;13.93;3.42;;;26.30;99.00;;;;;;4934183;29;20407;-80
2022/06/19 18:22:43;;;;;;;12.68;3.85;;;26.20;98.80;;;;;;4933202;29;20535;-81
2022/06/19 18:25:09;;;;;;;14.73;3.15;;;26.00;99.30;;;;;;4934696;29;20043;-81
2022/06/19 18:27:35;;;;;;;15.55;3.47;;;25.70;99.70;;;;;;4934087;29;20032;-81
2022/06/19 18:30:11;;;;;;;14.50;3.10;;;25.40;99.90;;;;;;4945193;29;20032;-81
2022/06/19 18:32:37;;;;;;;9.57;2.53;;;25.20;99.90;;;;;;4945820;29;20210;-81
2022/06/19 18:35:13;;;;;;;15.07;3.17;;;25.20;99.90;;;;;;4946146;29;20048;-81
2022/06/19 18:37:39;;;;;;;12.50;2.97;;;25.00;99.90;;;;;;4945519;29;20094;-82
2022/06/19 18:40:09;;;;;;;15.65;3.20;;;24.90;99.90;;;;;;4945724;29;20192;-81
2022/06/19 18:42:35;;;;;;;16.45;2.65;;;24.80;99.90;;;;;;4946137;29;20022;-82
2022/06/19 18:45:04;;;;;;;9.20;2.72;;;24.80;99.90;;;;;;4946290;29;20031;-80
2022/06/19 18:47:33;;;;;;;13.70;2.85;;;24.70;99.90;;;;;;4945087;29;20047;-80
2022/06/19 18:49:59;;;;;;;14.68;3.55;;;24.60;99.90;;;;;;4945718;29;20091;-80
2022/06/19 18:52:40;;;;;;;17.23;3.38;;;24.60;99.90;;;;;;4944531;29;20091;-80
2022/06/19 18:55:29;;;;;;;13.63;3.10;;;24.60;99.90;;;;;;4944753;29;20024;-80
2022/06/19 18:57:56;;;;;;;13.27;3.63;;;24.60;99.90;;;;;;4945165;29;20042;-80
2022/06/19 19:00:24;;;;;;;15.45;3.70;;;24.40;99.90;;;;;;4944449;29;20041;-80
2022/06/19 19:02:50;;;;;;;15.55;3.22;;;24.30;99.90;;;;;;4942750;29;20015;-77
2022/06/19 19:05:19;;;;;;;10.13;3.28;;;24.20;99.90;;;;;;4940886;29;20038;-78
2022/06/19 19:07:52;;;;;;;10.65;3.10;;;24.10;99.90;;;;;;4935586;29;20023;-77
2022/06/19 19:10:22;;;;;;;17.65;3.38;;;24.00;99.90;;;;;;4940758;29;20054;-77
2022/06/19 19:12:49;;;;;;;17.08;3.70;;;23.70;99.90;;;;;;4934985;29;20024;-77
2022/06/19 19:15:23;;;;;;;15.18;3.63;;;23.60;99.90;;;;;;4937367;29;20040;-77
2022/06/19 19:17:51;;;;;;;15.52;3.53;;;23.40;99.90;;;;;;4934596;29;20520;-77
2022/06/19 19:20:39;;;;;;;15.45;3.50;;;23.30;99.90;;;;;;4937655;29;20086;-77
2022/06/19 19:23:05;;;;;;;15.38;4.60;;;23.30;99.90;;;;;;4934733;29;20051;-78
2022/06/19 19:25:34;;;;;;;13.65;3.70;;;23.00;99.90;;;;;;4939949;29;20476;-77
2022/06/19 19:28:03;;;;;;;15.27;4.03;;;22.90;99.90;;;;;;4939099;29;20223;-77
2022/06/19 19:30:31;;;;;;;16.25;4.18;;;22.80;99.90;;;;;;4938833;29;20019;-77
2022/06/19 19:33:00;;;;;;;18.58;3.90;;;22.60;99.90;;;;;;4939320;29;20075;-78
2022/06/19 19:35:25;;;;;;;16.52;3.83;;;22.50;99.90;;;;;;4935661;29;20349;-78
2022/06/19 19:38:04;;;;;;;21.48;4.65;;;22.40;99.90;;;;;;4936603;29;20031;-78
2022/06/19 19:40:29;;;;;;;12.48;3.50;;;22.20;99.90;;;;;;4936932;29;20036;-78
2022/06/19 19:42:55;;;;;;;15.85;4.32;;;22.20;99.90;;;;;;4935009;29;20051;-78
2022/06/19 19:45:21;;;;;;;20.80;4.53;;;22.10;99.90;;;;;;4936874;29;20039;-78
2022/06/19 19:47:48;;;;;;;21.38;4.07;;;22.10;99.90;;;;;;4933380;29;20051;-79
2022/06/19 19:50:29;;;;;;;20.25;4.63;;;22.00;99.90;;;;;;4933526;29;20039;-78
2022/06/19 19:52:54;;;;;;;25.77;4.88;;;22.00;99.90;;;;;;4933571;29;20391;-78
2022/06/19 19:55:23;;;;;;;24.92;4.03;;;22.00;99.90;;;;;;4933418;29;20045;-79
2022/06/19 19:57:49;;;;;;;15.40;3.88;;;21.90;99.90;;;;;;4933583;29;20028;-79
2022/06/19 20:00:18;;;;;;;17.92;4.25;;;21.80;99.90;;;;;;4936940;29;20492;-78
2022/06/19 20:02:44;;;;;;;21.30;5.28;;;21.70;99.90;;;;;;4933301;29;20030;-78
2022/06/19 20:05:12;;;;;;;17.67;4.05;;;21.60;99.90;;;;;;4933388;29;20024;-78
2022/06/19 20:10:32;;;;;;;17.75;4.30;;;21.60;99.90;;;;;;4937211;29;20038;-79
2022/06/19 20:12:59;;;;;;;21.83;4.57;;;21.60;99.90;;;;;;4935587;29;20119;-78
2022/06/19 20:15:25;;;;;;;23.83;4.70;;;21.60;99.90;;;;;;4937072;29;20058;-79
2022/06/19 20:17:51;;;;;;;21.33;4.50;;;21.60;99.90;;;;;;4937301;29;20298;-79
2022/06/19 20:20:17;;;;;;;19.77;3.70;;;21.60;99.90;;;;;;4937669;29;20171;-79
2022/06/19 20:22:47;;;;;;;20.70;4.65;;;21.60;99.90;;;;;;4935289;29;20057;-79
2022/06/19 20:25:36;;;;;;;17.00;3.50;;;21.60;99.90;;;;;;4933037;29;20035;-79
2022/06/19 20:28:04;;;;;;;21.58;4.40;;;21.60;99.90;;;;;;4932997;29;20102;-79
2022/06/19 20:30:38;;;;;;;22.20;4.20;;;21.60;99.90;;;;;;4934513;29;20513;-79
2022/06/19 20:33:09;;;;;;;21.88;4.63;;;21.50;99.90;;;;;;4935564;29;20504;-80
2022/06/19 20:35:35;;;;;;;17.75;4.28;;;21.60;99.90;;;;;;4933127;29;20020;-79
2022/06/19 20:38:12;;;;;;;15.85;3.58;;;21.70;99.90;;;;;;4939462;29;20028;-79
2022/06/19 20:40:38;;;;;;;20.38;4.15;;;21.70;99.90;;;;;;4938870;29;20038;-79
2022/06/19 20:43:04;;;;;;;16.27;3.70;;;21.70;99.90;;;;;;4935791;29;20020;-79
2022/06/19 20:45:30;;;;;;;20.45;4.28;;;21.60;99.90;;;;;;4937160;29;20155;-79
2022/06/19 20:47:59;;;;;;;16.55;3.72;;;21.60;99.90;;;;;;4941530;29;20066;-79
2022/06/19 20:50:39;;;;;;;18.50;4.25;;;21.60;99.90;;;;;;4932477;29;20032;-79
2022/06/19 20:53:06;;;;;;;20.02;4.53;;;21.60;99.90;;;;;;4932971;29;20028;-79
2022/06/19 20:55:36;;;;;;;18.33;4.47;;;21.60;99.90;;;;;;4932752;29;20505;-79
2022/06/19 20:58:04;;;;;;;20.92;3.63;;;21.60;99.90;;;;;;4938277;29;20366;-79
2022/06/19 21:00:42;;;;;;;14.20;4.28;;;21.50;99.90;;;;;;4943317;29;20020;-79
2022/06/19 21:03:08;;;;;;;13.13;3.72;;;21.50;99.90;;;;;;4941970;29;20091;-78
2022/06/19 21:05:36;;;;;;;15.95;4.70;;;21.60;99.90;;;;;;4942440;29;20415;-79
2022/06/19 21:08:10;;;;;;;19.95;4.85;;;21.60;99.90;;;;;;4943618;29;20316;-79
2022/06/19 21:10:39;;;;;;;21.73;4.37;;;21.70;99.90;;;;;;4943931;29;20020;-79
2022/06/19 21:13:07;;;;;;;16.80;4.03;;;21.70;99.90;;;;;;4943501;29;20304;-79
2022/06/19 21:15:34;;;;;;;16.85;4.03;;;21.80;99.90;;;;;;4943414;29;20024;-79
2022/06/19 21:18:00;;;;;;;15.45;3.63;;;21.90;99.90;;;;;;4943364;29;20027;-78
2022/06/19 21:20:26;;;;;;;16.95;3.65;;;21.90;99.90;;;;;;4943530;29;20023;-79
2022/06/19 21:22:55;;;;;;;19.35;4.18;;;21.90;99.90;;;;;;4943137;29;20043;-79
2022/06/19 21:25:33;;;;;;;18.33;4.03;;;21.80;99.90;;;;;;4944013;29;20028;-79
2022/06/19 21:28:02;;;;;;;17.63;4.20;;;21.90;99.90;;;;;;4943089;29;20023;-79
2022/06/19 21:30:28;;;;;;;20.67;3.88;;;21.90;99.90;;;;;;4943927;29;20030;-78
2022/06/19 21:32:54;;;;;;;20.02;5.07;;;22.00;99.90;;;;;;4943468;29;20063;-78
2022/06/19 21:35:20;;;;;;;19.20;3.53;;;22.10;99.90;;;;;;4943603;29;20035;-78
2022/06/19 21:37:49;;;;;;;16.40;3.67;;;22.10;99.90;;;;;;4942567;29;20037;-78
2022/06/19 21:40:19;;;;;;;16.88;4.03;;;22.10;99.90;;;;;;4942812;29;20066;-78
2022/06/19 21:42:45;;;;;;;15.40;3.55;;;22.10;99.90;;;;;;4941937;29;20068;-78
2022/06/19 21:45:20;;;;;;;15.63;3.97;;;22.00;99.90;;;;;;4943874;29;20311;-78
2022/06/19 21:47:46;;;;;;;18.02;3.95;;;21.90;99.90;;;;;;4941213;29;20248;-78
2022/06/19 21:50:13;;;;;;;16.95;4.15;;;21.80;99.90;;;;;;4942835;29;20193;-78
2022/06/19 21:52:39;;;;;;;18.40;4.35;;;21.80;99.90;;;;;;4941864;29;20307;-78
2022/06/19 21:55:08;;;;;;;21.52;4.47;;;21.70;99.90;;;;;;4942232;29;20109;-78
2022/06/19 21:57:33;;;;;;;18.92;3.50;;;21.60;99.90;;;;;;4942981;29;20024;-78
2022/06/19 21:59:59;;;;;;;21.75;4.63;;;21.60;99.90;;;;;;4942176;29;20039;-78
2022/06/19 22:02:25;;;;;;;14.55;3.85;;;21.50;99.90;;;;;;4943421;29;20215;-78
2022/06/19 22:04:50;;;;;;;17.42;4.68;;;21.60;99.90;;;;;;4947000;29;20024;-78
2022/06/19 22:07:16;;;;;;;17.45;3.97;;;21.50;99.90;;;;;;4946460;29;20051;-78
2022/06/19 22:12:26;;;;;;;18.23;3.65;;;21.40;99.90;;;;;;4946409;29;20043;-78
2022/06/19 22:14:52;;;;;;;18.42;3.97;;;21.30;99.90;;;;;;4946536;29;20219;-78
2022/06/19 22:17:18;;;;;;;16.23;3.65;;;21.30;99.90;;;;;;4945972;29;20361;-78
2022/06/19 22:19:45;;;;;;;16.13;4.07;;;21.40;99.90;;;;;;4946505;29;20099;-78
2022/06/19 22:22:17;;;;;;;16.08;4.47;;;21.30;99.90;;;;;;4946266;29;20027;-78
2022/06/19 22:24:49;;;;;;;14.80;4.30;;;21.30;99.90;;;;;;4946473;29;20038;-78
2022/06/19 22:27:18;;;;;;;23.05;4.70;;;21.30;99.90;;;;;;4945161;29;20046;-78
2022/06/19 22:29:44;;;;;;;18.63;4.20;;;21.30;99.90;;;;;;4946400;29;20187;-78
2022/06/19 22:32:14;;;;;;;12.50;4.00;;;21.20;99.90;;;;;;4945966;29;20314;-78
2022/06/19 22:34:40;;;;;;;15.65;4.50;;;21.20;99.90;;;;;;4946053;29;20032;-78
2022/06/19 22:37:12;;;;;;;18.77;4.15;;;21.10;99.90;;;;;;4946321;29;20016;-78
2022/06/19 22:39:42;;;;;;;17.02;4.07;;;21.10;99.90;;;;;;4944463;29;20039;-78
2022/06/19 22:42:14;;;;;;;17.27;4.28;;;21.10;99.90;;;;;;4944733;29;20172;-77
2022/06/19 22:44:41;;;;;;;19.30;4.30;;;21.10;99.90;;;;;;4944614;29;20315;-78
2022/06/19 22:47:28;;;;;;;21.55;4.70;;;21.00;99.90;;;;;;4945601;29;20157;-78
2022/06/19 22:49:54;;;;;;;23.08;4.60;;;21.00;99.90;;;;;;4944129;29;20032;-78
2022/06/19 22:52:21;;;;;;;17.77;4.88;;;21.00;99.90;;;;;;4944887;29;20227;-78
2022/06/19 22:54:47;;;;;;;15.23;4.22;;;20.90;99.90;;;;;;4944336;29;20079;-77
2022/06/19 22:57:30;;;;;;;20.10;4.65;;;20.90;99.90;;;;;;4945312;29;20052;-78
2022/06/19 23:02:42;;;;;;;;;;;20.90;99.90;;;;;;4945959;29;20034;-78
2022/06/19 23:05:23;;;;;;;23.77;3.72;;;20.90;99.90;;;;;;4945005;29;20123;-78
2022/06/19 23:07:49;;;;;;;17.25;3.70;;;20.90;99.90;;;;;;4945200;29;20028;-77
2022/06/19 23:10:16;;;;;;;17.42;4.25;;;20.80;99.90;;;;;;4945466;29;20241;-78
2022/06/19 23:12:41;;;;;;;17.52;4.30;;;20.80;99.90;;;;;;4944597;29;20039;-77
2022/06/19 23:15:08;;;;;;;24.33;4.97;;;20.80;99.90;;;;;;4944970;29;20285;-78
2022/06/19 23:17:34;;;;;;;18.67;3.75;;;20.90;99.90;;;;;;4945143;29;20204;-78
2022/06/19 23:20:01;;;;;;;20.63;4.90;;;20.80;99.90;;;;;;4945542;29;20087;-78
2022/06/19 23:22:35;;;;;;;21.85;5.13;;;20.70;99.90;;;;;;4945365;29;20097;-78
2022/06/19 23:25:01;;;;;;;23.85;5.30;;;20.60;99.90;;;;;;4945257;29;20030;-77
2022/06/19 23:27:29;;;;;;;23.27;5.03;;;20.60;99.90;;;;;;4945040;29;20027;-77
2022/06/19 23:29:55;;;;;;;20.27;4.85;;;20.60;99.90;;;;;;4945168;29;20139;-78
2022/06/19 23:32:21;;;;;;;24.92;5.47;;;20.50;99.90;;;;;;4945222;29;20024;-78
2022/06/19 23:34:47;;;;;;;28.92;4.63;;;20.50;99.90;;;;;;4945356;29;20054;-78
2022/06/19 23:37:18;;;;;;;26.48;5.28;;;20.50;99.90;;;;;;4945088;29;20024;-78
2022/06/19 23:39:44;;;;;;;19.25;4.65;;;20.50;99.90;;;;;;4944937;29;20246;-77
2022/06/19 23:42:31;;;;;;;22.50;4.13;;;20.50;99.90;;;;;;4944953;29;20029;-77
2022/06/19 23:45:02;;;;;;;24.65;5.25;;;20.50;99.90;;;;;;4944760;29;20034;-78
2022/06/19 23:47:29;;;;;;;23.70;4.55;;;20.50;99.90;;;;;;4944631;29;20227;-77
2022/06/19 23:49:56;;;;;;;20.92;4.68;;;20.50;99.90;;;;;;4945016;29;20038;-77
2022/06/19 23:52:22;;;;;;;19.48;5.75;;;20.50;99.90;;;;;;4944531;29;20020;-77
2022/06/19 23:54:48;;;;;;;23.02;4.07;;;20.50;99.90;;;;;;4944744;29;20168;-77
2022/06/19 23:57:15;;;;;;;23.70;5.30;;;20.50;99.90;;;;;;4943544;29;20145;-78
2022/06/19 23:59:42;;;;;;;17.95;4.20;;;20.50;99.90;;;;;;4944901;29;20060;-77
